sensor_id;sensor_type;location;lat;lon;timestamp;P1;durP1;ratioP1;P2;durP2;ratioP2
17345;SDS011;8790;53.590;10.002;2023-10-08T00:01:19;11.47;;;3.90;;
17345;SDS011;8790;53.590;10.002;2023-10-08T00:03:53;9.53;;;4.10;;
17345;SDS011;8790;53.590;10.002;2023-10-08T00:06:28;8.87;;;4.47;;
17345;SDS011;8790;53.590;10.002;2023-10-08T00:09:00;9.97;;;4.27;;
17345;SDS011;8790;53.590;10.002;2023-10-08T00:11:36;8.03;;;4.10;;
17345;SDS011;8790;53.590;10.002;2023-10-08T00:14:07;9.30;;;5.00;;
17345;SDS011;8790;53.590;10.002;2023-10-08T00:16:40;10.00;;;4.50;;
17345;SDS011;8790;53.590;10.002;2023-10-08T00:19:13;9.30;;;4.27;;
17345;SDS011;8790;53.590;10.002;2023-10-08T00:21:45;8.77;;;4.20;;
17345;SDS011;8790;53.590;10.002;2023-10-08T00:24:18;8.80;;;4.10;;
17345;SDS011;8790;53.590;10.002;2023-10-08T00:26:56;8.70;;;3.87;;
17345;SDS011;8790;53.590;10.002;2023-10-08T00:29:30;7.83;;;3.93;;
17345;SDS011;8790;53.590;10.002;2023-10-08T00:32:01;10.40;;;3.97;;
17345;SDS011;8790;53.590;10.002;2023-10-08T00:34:43;10.57;;;3.90;;
17345;SDS011;8790;53.590;10.002;2023-10-08T00:37:14;5.53;;;3.27;;
17345;SDS011;8790;53.590;10.002;2023-10-08T00:39:45;7.33;;;3.57;;
17345;SDS011;8790;53.590;10.002;2023-10-08T00:42:17;8.13;;;3.03;;
17345;SDS011;8790;53.590;10.002;2023-10-08T00:44:48;8.57;;;3.40;;
17345;SDS011;8790;53.590;10.002;2023-10-08T00:47:21;8.03;;;3.37;;
17345;SDS011;8790;53.590;10.002;2023-10-08T00:49:59;9.73;;;3.53;;
17345;SDS011;8790;53.590;10.002;2023-10-08T00:52:38;6.70;;;2.60;;
17345;SDS011;8790;53.590;10.002;2023-10-08T00:55:23;7.93;;;3.13;;
17345;SDS011;8790;53.590;10.002;2023-10-08T00:57:59;4.60;;;2.40;;
17345;SDS011;8790;53.590;10.002;2023-10-08T01:00:38;8.97;;;2.77;;
17345;SDS011;8790;53.590;10.002;2023-10-08T01:03:12;7.57;;;2.93;;
17345;SDS011;8790;53.590;10.002;2023-10-08T01:05:47;5.73;;;2.43;;
17345;SDS011;8790;53.590;10.002;2023-10-08T01:08:19;7.10;;;2.40;;
17345;SDS011;8790;53.590;10.002;2023-10-08T01:11:16;4.57;;;2.10;;
17345;SDS011;8790;53.590;10.002;2023-10-08T01:13:47;5.37;;;2.07;;
17345;SDS011;8790;53.590;10.002;2023-10-08T01:16:19;5.90;;;2.40;;
17345;SDS011;8790;53.590;10.002;2023-10-08T01:18:51;6.30;;;2.00;;
17345;SDS011;8790;53.590;10.002;2023-10-08T01:21:25;6.33;;;1.80;;
17345;SDS011;8790;53.590;10.002;2023-10-08T01:24:06;3.50;;;1.83;;
17345;SDS011;8790;53.590;10.002;2023-10-08T01:26:38;6.60;;;2.20;;
17345;SDS011;8790;53.590;10.002;2023-10-08T01:29:11;5.77;;;1.87;;
17345;SDS011;8790;53.590;10.002;2023-10-08T01:31:49;6.97;;;2.43;;
17345;SDS011;8790;53.590;10.002;2023-10-08T01:34:23;7.10;;;1.90;;
17345;SDS011;8790;53.590;10.002;2023-10-08T01:36:58;7.57;;;2.23;;
17345;SDS011;8790;53.590;10.002;2023-10-08T01:39:37;7.00;;;1.87;;
17345;SDS011;8790;53.590;10.002;2023-10-08T01:42:10;6.93;;;2.20;;
17345;SDS011;8790;53.590;10.002;2023-10-08T01:44:47;5.93;;;2.27;;
17345;SDS011;8790;53.590;10.002;2023-10-08T01:47:21;4.23;;;1.90;;
17345;SDS011;8790;53.590;10.002;2023-10-08T01:49:55;5.97;;;1.90;;
17345;SDS011;8790;53.590;10.002;2023-10-08T01:52:35;5.83;;;1.97;;
17345;SDS011;8790;53.590;10.002;2023-10-08T01:55:08;5.37;;;2.00;;
17345;SDS011;8790;53.590;10.002;2023-10-08T01:57:43;4.53;;;2.00;;
17345;SDS011;8790;53.590;10.002;2023-10-08T02:00:15;5.83;;;1.80;;
17345;SDS011;8790;53.590;10.002;2023-10-08T02:02:50;5.10;;;2.00;;
17345;SDS011;8790;53.590;10.002;2023-10-08T02:05:21;4.23;;;2.00;;
17345;SDS011;8790;53.590;10.002;2023-10-08T02:07:53;6.30;;;1.87;;
17345;SDS011;8790;53.590;10.002;2023-10-08T02:10:26;7.33;;;2.10;;
17345;SDS011;8790;53.590;10.002;2023-10-08T02:12:59;7.77;;;2.10;;
17345;SDS011;8790;53.590;10.002;2023-10-08T02:15:31;6.53;;;2.20;;
17345;SDS011;8790;53.590;10.002;2023-10-08T02:18:03;6.83;;;1.80;;
17345;SDS011;8790;53.590;10.002;2023-10-08T02:20:35;7.17;;;2.00;;
17345;SDS011;8790;53.590;10.002;2023-10-08T02:23:06;3.97;;;1.90;;
17345;SDS011;8790;53.590;10.002;2023-10-08T02:25:39;4.67;;;1.77;;
17345;SDS011;8790;53.590;10.002;2023-10-08T02:28:11;4.93;;;1.60;;
17345;SDS011;8790;53.590;10.002;2023-10-08T02:30:45;5.90;;;1.67;;
17345;SDS011;8790;53.590;10.002;2023-10-08T02:33:16;7.50;;;1.83;;
17345;SDS011;8790;53.590;10.002;2023-10-08T02:35:48;6.07;;;1.70;;
17345;SDS011;8790;53.590;10.002;2023-10-08T02:38:19;5.73;;;1.60;;
17345;SDS011;8790;53.590;10.002;2023-10-08T02:40:52;3.80;;;1.60;;
17345;SDS011;8790;53.590;10.002;2023-10-08T02:43:26;8.33;;;1.70;;
17345;SDS011;8790;53.590;10.002;2023-10-08T02:46:00;2.47;;;1.50;;
17345;SDS011;8790;53.590;10.002;2023-10-08T02:48:31;6.10;;;1.40;;
17345;SDS011;8790;53.590;10.002;2023-10-08T02:51:05;4.77;;;1.30;;
17345;SDS011;8790;53.590;10.002;2023-10-08T02:53:44;3.37;;;1.50;;
17345;SDS011;8790;53.590;10.002;2023-10-08T02:56:18;5.20;;;1.60;;
17345;SDS011;8790;53.590;10.002;2023-10-08T02:58:49;6.10;;;1.50;;
17345;SDS011;8790;53.590;10.002;2023-10-08T03:01:21;4.53;;;1.77;;
17345;SDS011;8790;53.590;10.002;2023-10-08T03:03:52;5.20;;;1.90;;
17345;SDS011;8790;53.590;10.002;2023-10-08T03:06:38;3.83;;;1.43;;
17345;SDS011;8790;53.590;10.002;2023-10-08T03:09:11;4.13;;;1.33;;
17345;SDS011;8790;53.590;10.002;2023-10-08T03:11:45;6.23;;;1.57;;
17345;SDS011;8790;53.590;10.002;2023-10-08T03:14:18;3.37;;;1.10;;
17345;SDS011;8790;53.590;10.002;2023-10-08T03:16:53;5.90;;;1.33;;
17345;SDS011;8790;53.590;10.002;2023-10-08T03:19:37;3.47;;;1.37;;
17345;SDS011;8790;53.590;10.002;2023-10-08T03:22:09;2.80;;;1.40;;
17345;SDS011;8790;53.590;10.002;2023-10-08T03:24:42;4.40;;;1.70;;
17345;SDS011;8790;53.590;10.002;2023-10-08T03:27:15;4.27;;;1.50;;
17345;SDS011;8790;53.590;10.002;2023-10-08T03:29:50;3.67;;;1.50;;
17345;SDS011;8790;53.590;10.002;2023-10-08T03:32:24;5.03;;;1.70;;
17345;SDS011;8790;53.590;10.002;2023-10-08T03:34:57;2.87;;;1.47;;
17345;SDS011;8790;53.590;10.002;2023-10-08T03:37:29;5.57;;;1.67;;
17345;SDS011;8790;53.590;10.002;2023-10-08T03:40:10;1.80;;;1.10;;
17345;SDS011;8790;53.590;10.002;2023-10-08T03:42:56;3.47;;;1.27;;
17345;SDS011;8790;53.590;10.002;2023-10-08T03:45:28;3.13;;;1.20;;
17345;SDS011;8790;53.590;10.002;2023-10-08T03:48:17;4.83;;;1.20;;
17345;SDS011;8790;53.590;10.002;2023-10-08T03:50:48;3.90;;;1.20;;
17345;SDS011;8790;53.590;10.002;2023-10-08T03:53:26;2.77;;;0.90;;
17345;SDS011;8790;53.590;10.002;2023-10-08T03:56:01;5.13;;;1.20;;
17345;SDS011;8790;53.590;10.002;2023-10-08T03:58:37;3.13;;;1.17;;
17345;SDS011;8790;53.590;10.002;2023-10-08T04:01:14;3.07;;;1.17;;
17345;SDS011;8790;53.590;10.002;2023-10-08T04:03:49;3.33;;;1.30;;
17345;SDS011;8790;53.590;10.002;2023-10-08T04:06:28;3.17;;;1.27;;
17345;SDS011;8790;53.590;10.002;2023-10-08T04:09:01;3.73;;;1.00;;
17345;SDS011;8790;53.590;10.002;2023-10-08T04:11:46;3.23;;;1.00;;
17345;SDS011;8790;53.590;10.002;2023-10-08T04:14:25;3.10;;;1.23;;
17345;SDS011;8790;53.590;10.002;2023-10-08T04:16:58;3.07;;;1.20;;
17345;SDS011;8790;53.590;10.002;2023-10-08T04:19:29;5.60;;;1.50;;
17345;SDS011;8790;53.590;10.002;2023-10-08T04:22:01;3.13;;;1.63;;
17345;SDS011;8790;53.590;10.002;2023-10-08T04:24:33;2.47;;;1.20;;
17345;SDS011;8790;53.590;10.002;2023-10-08T04:27:05;6.40;;;1.47;;
17345;SDS011;8790;53.590;10.002;2023-10-08T04:29:41;3.67;;;1.17;;
17345;SDS011;8790;53.590;10.002;2023-10-08T04:32:12;4.13;;;1.00;;
17345;SDS011;8790;53.590;10.002;2023-10-08T04:34:52;3.53;;;1.00;;
17345;SDS011;8790;53.590;10.002;2023-10-08T04:37:26;4.07;;;1.17;;
17345;SDS011;8790;53.590;10.002;2023-10-08T04:40:03;3.83;;;1.20;;
17345;SDS011;8790;53.590;10.002;2023-10-08T04:42:39;3.17;;;1.13;;
17345;SDS011;8790;53.590;10.002;2023-10-08T04:45:12;1.57;;;0.90;;
17345;SDS011;8790;53.590;10.002;2023-10-08T04:47:44;2.60;;;1.20;;
17345;SDS011;8790;53.590;10.002;2023-10-08T04:50:15;3.87;;;1.30;;
17345;SDS011;8790;53.590;10.002;2023-10-08T04:52:51;2.60;;;1.10;;
17345;SDS011;8790;53.590;10.002;2023-10-08T04:55:28;4.53;;;1.10;;
17345;SDS011;8790;53.590;10.002;2023-10-08T04:57:59;2.83;;;1.20;;
17345;SDS011;8790;53.590;10.002;2023-10-08T05:00:36;3.20;;;1.40;;
17345;SDS011;8790;53.590;10.002;2023-10-08T05:03:23;3.67;;;1.47;;
17345;SDS011;8790;53.590;10.002;2023-10-08T05:06:02;3.83;;;1.03;;
17345;SDS011;8790;53.590;10.002;2023-10-08T05:08:44;3.53;;;1.10;;
17345;SDS011;8790;53.590;10.002;2023-10-08T05:11:17;4.23;;;1.13;;
17345;SDS011;8790;53.590;10.002;2023-10-08T05:14:16;4.13;;;1.10;;
17345;SDS011;8790;53.590;10.002;2023-10-08T05:16:59;4.43;;;1.20;;
17345;SDS011;8790;53.590;10.002;2023-10-08T05:19:33;3.07;;;1.03;;
17345;SDS011;8790;53.590;10.002;2023-10-08T05:22:26;2.57;;;1.20;;
17345;SDS011;8790;53.590;10.002;2023-10-08T05:25:25;5.03;;;1.10;;
17345;SDS011;8790;53.590;10.002;2023-10-08T05:28:05;3.73;;;1.13;;
17345;SDS011;8790;53.590;10.002;2023-10-08T05:30:41;2.43;;;1.00;;
17345;SDS011;8790;53.590;10.002;2023-10-08T05:33:24;2.57;;;1.00;;
17345;SDS011;8790;53.590;10.002;2023-10-08T05:35:58;2.63;;;1.00;;
17345;SDS011;8790;53.590;10.002;2023-10-08T05:38:40;3.30;;;1.20;;
17345;SDS011;8790;53.590;10.002;2023-10-08T05:41:29;5.47;;;1.00;;
17345;SDS011;8790;53.590;10.002;2023-10-08T05:44:08;2.93;;;1.20;;
17345;SDS011;8790;53.590;10.002;2023-10-08T05:46:54;5.37;;;1.20;;
17345;SDS011;8790;53.590;10.002;2023-10-08T05:49:44;3.93;;;1.30;;
17345;SDS011;8790;53.590;10.002;2023-10-08T05:52:45;6.30;;;1.40;;
17345;SDS011;8790;53.590;10.002;2023-10-08T05:55:31;2.97;;;1.07;;
17345;SDS011;8790;53.590;10.002;2023-10-08T05:58:17;2.60;;;0.97;;
17345;SDS011;8790;53.590;10.002;2023-10-08T06:00:54;2.17;;;1.13;;
17345;SDS011;8790;53.590;10.002;2023-10-08T06:03:56;3.70;;;1.20;;
17345;SDS011;8790;53.590;10.002;2023-10-08T06:06:43;3.37;;;1.10;;
17345;SDS011;8790;53.590;10.002;2023-10-08T06:09:27;2.77;;;1.10;;
17345;SDS011;8790;53.590;10.002;2023-10-08T06:12:07;2.30;;;1.00;;
17345;SDS011;8790;53.590;10.002;2023-10-08T06:14:40;4.23;;;1.10;;
17345;SDS011;8790;53.590;10.002;2023-10-08T06:17:37;3.43;;;1.20;;
17345;SDS011;8790;53.590;10.002;2023-10-08T06:20:28;2.20;;;0.90;;
17345;SDS011;8790;53.590;10.002;2023-10-08T06:23:01;3.17;;;1.83;;
17345;SDS011;8790;53.590;10.002;2023-10-08T06:25:37;4.17;;;1.10;;
17345;SDS011;8790;53.590;10.002;2023-10-08T06:28:16;3.40;;;1.20;;
17345;SDS011;8790;53.590;10.002;2023-10-08T06:30:50;2.53;;;1.23;;
17345;SDS011;8790;53.590;10.002;2023-10-08T06:33:23;5.17;;;1.20;;
17345;SDS011;8790;53.590;10.002;2023-10-08T06:36:00;2.87;;;1.27;;
17345;SDS011;8790;53.590;10.002;2023-10-08T06:38:34;2.23;;;1.10;;
17345;SDS011;8790;53.590;10.002;2023-10-08T06:41:07;3.40;;;1.27;;
17345;SDS011;8790;53.590;10.002;2023-10-08T06:43:45;4.57;;;1.40;;
17345;SDS011;8790;53.590;10.002;2023-10-08T06:46:19;3.90;;;1.27;;
17345;SDS011;8790;53.590;10.002;2023-10-08T06:48:52;2.80;;;1.13;;
17345;SDS011;8790;53.590;10.002;2023-10-08T06:51:24;2.93;;;1.10;;
17345;SDS011;8790;53.590;10.002;2023-10-08T06:53:57;3.17;;;1.07;;
17345;SDS011;8790;53.590;10.002;2023-10-08T06:56:31;4.07;;;1.50;;
17345;SDS011;8790;53.590;10.002;2023-10-08T06:59:03;2.57;;;1.40;;
17345;SDS011;8790;53.590;10.002;2023-10-08T07:01:35;4.60;;;1.10;;
17345;SDS011;8790;53.590;10.002;2023-10-08T07:04:10;3.73;;;1.27;;
17345;SDS011;8790;53.590;10.002;2023-10-08T07:06:42;5.40;;;1.13;;
17345;SDS011;8790;53.590;10.002;2023-10-08T07:09:17;4.37;;;1.17;;
17345;SDS011;8790;53.590;10.002;2023-10-08T07:11:59;3.90;;;1.80;;
17345;SDS011;8790;53.590;10.002;2023-10-08T07:14:35;4.10;;;1.30;;
17345;SDS011;8790;53.590;10.002;2023-10-08T07:17:08;5.70;;;1.30;;
17345;SDS011;8790;53.590;10.002;2023-10-08T07:19:42;3.03;;;1.17;;
17345;SDS011;8790;53.590;10.002;2023-10-08T07:22:17;2.37;;;1.20;;
17345;SDS011;8790;53.590;10.002;2023-10-08T07:24:54;5.07;;;1.37;;
17345;SDS011;8790;53.590;10.002;2023-10-08T07:27:25;3.47;;;1.33;;
17345;SDS011;8790;53.590;10.002;2023-10-08T07:30:02;3.37;;;1.10;;
17345;SDS011;8790;53.590;10.002;2023-10-08T07:32:40;2.37;;;1.00;;
17345;SDS011;8790;53.590;10.002;2023-10-08T07:35:11;4.10;;;1.20;;
17345;SDS011;8790;53.590;10.002;2023-10-08T07:37:54;2.60;;;1.17;;
17345;SDS011;8790;53.590;10.002;2023-10-08T07:40:28;2.73;;;1.10;;
17345;SDS011;8790;53.590;10.002;2023-10-08T07:43:01;3.40;;;1.40;;
17345;SDS011;8790;53.590;10.002;2023-10-08T07:45:38;3.67;;;0.93;;
17345;SDS011;8790;53.590;10.002;2023-10-08T07:48:10;3.27;;;1.00;;
17345;SDS011;8790;53.590;10.002;2023-10-08T07:50:44;2.27;;;1.17;;
17345;SDS011;8790;53.590;10.002;2023-10-08T07:53:16;3.03;;;1.30;;
17345;SDS011;8790;53.590;10.002;2023-10-08T07:55:50;2.80;;;1.10;;
17345;SDS011;8790;53.590;10.002;2023-10-08T07:58:22;2.67;;;0.97;;
17345;SDS011;8790;53.590;10.002;2023-10-08T08:00:53;4.63;;;1.00;;
17345;SDS011;8790;53.590;10.002;2023-10-08T08:03:25;3.70;;;1.10;;
17345;SDS011;8790;53.590;10.002;2023-10-08T08:05:56;3.90;;;1.20;;
17345;SDS011;8790;53.590;10.002;2023-10-08T08:08:28;4.67;;;1.10;;
17345;SDS011;8790;53.590;10.002;2023-10-08T08:11:01;3.60;;;0.90;;
17345;SDS011;8790;53.590;10.002;2023-10-08T08:13:37;3.53;;;1.10;;
17345;SDS011;8790;53.590;10.002;2023-10-08T08:16:09;2.70;;;0.87;;
17345;SDS011;8790;53.590;10.002;2023-10-08T08:18:48;4.60;;;1.13;;
17345;SDS011;8790;53.590;10.002;2023-10-08T08:21:21;2.90;;;1.00;;
17345;SDS011;8790;53.590;10.002;2023-10-08T08:23:53;2.03;;;0.90;;
17345;SDS011;8790;53.590;10.002;2023-10-08T08:26:36;2.30;;;1.00;;
17345;SDS011;8790;53.590;10.002;2023-10-08T08:29:14;4.67;;;1.10;;
17345;SDS011;8790;53.590;10.002;2023-10-08T08:31:46;1.87;;;1.00;;
17345;SDS011;8790;53.590;10.002;2023-10-08T08:34:17;1.73;;;1.00;;
17345;SDS011;8790;53.590;10.002;2023-10-08T08:36:49;3.37;;;1.37;;
17345;SDS011;8790;53.590;10.002;2023-10-08T08:39:21;5.33;;;1.17;;
17345;SDS011;8790;53.590;10.002;2023-10-08T08:42:03;4.67;;;1.20;;
17345;SDS011;8790;53.590;10.002;2023-10-08T08:44:36;2.00;;;1.00;;
17345;SDS011;8790;53.590;10.002;2023-10-08T08:47:09;2.17;;;0.77;;
17345;SDS011;8790;53.590;10.002;2023-10-08T08:49:44;3.93;;;1.00;;
17345;SDS011;8790;53.590;10.002;2023-10-08T08:52:16;5.63;;;1.30;;
17345;SDS011;8790;53.590;10.002;2023-10-08T08:54:47;4.47;;;0.90;;
17345;SDS011;8790;53.590;10.002;2023-10-08T08:57:20;2.43;;;0.80;;
17345;SDS011;8790;53.590;10.002;2023-10-08T08:59:53;3.37;;;1.07;;
17345;SDS011;8790;53.590;10.002;2023-10-08T09:02:25;2.43;;;0.80;;
17345;SDS011;8790;53.590;10.002;2023-10-08T09:04:56;2.83;;;0.83;;
17345;SDS011;8790;53.590;10.002;2023-10-08T09:07:27;4.07;;;1.27;;
17345;SDS011;8790;53.590;10.002;2023-10-08T09:09:59;1.20;;;0.80;;
17345;SDS011;8790;53.590;10.002;2023-10-08T09:12:33;4.77;;;1.10;;
17345;SDS011;8790;53.590;10.002;2023-10-08T09:15:05;1.10;;;0.60;;
17345;SDS011;8790;53.590;10.002;2023-10-08T09:17:39;2.97;;;0.90;;
17345;SDS011;8790;53.590;10.002;2023-10-08T09:20:10;1.13;;;0.70;;
17345;SDS011;8790;53.590;10.002;2023-10-08T09:22:42;2.90;;;0.70;;
17345;SDS011;8790;53.590;10.002;2023-10-08T09:25:17;2.80;;;0.70;;
17345;SDS011;8790;53.590;10.002;2023-10-08T09:27:55;1.53;;;0.73;;
17345;SDS011;8790;53.590;10.002;2023-10-08T09:30:28;2.00;;;0.93;;
17345;SDS011;8790;53.590;10.002;2023-10-08T09:32:59;3.60;;;1.10;;
17345;SDS011;8790;53.590;10.002;2023-10-08T09:35:32;2.27;;;0.90;;
17345;SDS011;8790;53.590;10.002;2023-10-08T09:38:05;2.50;;;1.13;;
17345;SDS011;8790;53.590;10.002;2023-10-08T09:40:39;1.07;;;0.73;;
17345;SDS011;8790;53.590;10.002;2023-10-08T09:43:13;3.83;;;1.57;;
17345;SDS011;8790;53.590;10.002;2023-10-08T09:45:47;2.90;;;0.90;;
17345;SDS011;8790;53.590;10.002;2023-10-08T09:48:21;2.47;;;1.13;;
17345;SDS011;8790;53.590;10.002;2023-10-08T09:50:53;2.60;;;1.10;;
17345;SDS011;8790;53.590;10.002;2023-10-08T09:53:28;3.13;;;0.90;;
17345;SDS011;8790;53.590;10.002;2023-10-08T09:56:07;3.13;;;0.83;;
17345;SDS011;8790;53.590;10.002;2023-10-08T09:58:46;2.83;;;0.73;;
17345;SDS011;8790;53.590;10.002;2023-10-08T10:01:19;3.30;;;1.00;;
17345;SDS011;8790;53.590;10.002;2023-10-08T10:03:52;2.70;;;0.90;;
17345;SDS011;8790;53.590;10.002;2023-10-08T10:06:23;2.13;;;1.03;;
17345;SDS011;8790;53.590;10.002;2023-10-08T10:08:55;1.13;;;0.60;;
17345;SDS011;8790;53.590;10.002;2023-10-08T10:11:28;0.87;;;0.63;;
17345;SDS011;8790;53.590;10.002;2023-10-08T10:14:01;2.17;;;0.73;;
17345;SDS011;8790;53.590;10.002;2023-10-08T10:16:36;2.87;;;1.80;;
17345;SDS011;8790;53.590;10.002;2023-10-08T10:19:15;3.53;;;1.13;;
17345;SDS011;8790;53.590;10.002;2023-10-08T10:21:48;1.43;;;0.60;;
17345;SDS011;8790;53.590;10.002;2023-10-08T10:24:21;1.70;;;0.70;;
17345;SDS011;8790;53.590;10.002;2023-10-08T10:27:06;3.10;;;1.00;;
17345;SDS011;8790;53.590;10.002;2023-10-08T10:29:42;3.13;;;0.70;;
17345;SDS011;8790;53.590;10.002;2023-10-08T10:32:15;2.13;;;0.83;;
17345;SDS011;8790;53.590;10.002;2023-10-08T10:34:47;3.60;;;0.73;;
17345;SDS011;8790;53.590;10.002;2023-10-08T10:37:22;0.70;;;0.50;;
17345;SDS011;8790;53.590;10.002;2023-10-08T10:39:55;2.03;;;0.60;;
17345;SDS011;8790;53.590;10.002;2023-10-08T10:42:29;1.20;;;0.80;;
17345;SDS011;8790;53.590;10.002;2023-10-08T10:45:03;1.70;;;0.60;;
17345;SDS011;8790;53.590;10.002;2023-10-08T10:47:55;1.63;;;0.60;;
17345;SDS011;8790;53.590;10.002;2023-10-08T10:50:41;1.53;;;0.50;;
17345;SDS011;8790;53.590;10.002;2023-10-08T10:53:18;1.87;;;0.90;;
17345;SDS011;8790;53.590;10.002;2023-10-08T10:55:50;1.47;;;0.70;;
17345;SDS011;8790;53.590;10.002;2023-10-08T10:58:30;1.77;;;0.70;;
17345;SDS011;8790;53.590;10.002;2023-10-08T11:01:11;2.93;;;0.73;;
17345;SDS011;8790;53.590;10.002;2023-10-08T11:03:53;1.33;;;0.70;;
17345;SDS011;8790;53.590;10.002;2023-10-08T11:06:27;1.70;;;0.60;;
17345;SDS011;8790;53.590;10.002;2023-10-08T11:09:03;2.27;;;0.70;;
17345;SDS011;8790;53.590;10.002;2023-10-08T11:11:35;2.33;;;0.80;;
17345;SDS011;8790;53.590;10.002;2023-10-08T11:14:11;1.60;;;0.90;;
17345;SDS011;8790;53.590;10.002;2023-10-08T11:16:48;3.17;;;0.80;;
17345;SDS011;8790;53.590;10.002;2023-10-08T11:19:20;1.70;;;0.80;;
17345;SDS011;8790;53.590;10.002;2023-10-08T11:21:51;1.90;;;0.80;;
17345;SDS011;8790;53.590;10.002;2023-10-08T11:24:28;2.37;;;0.73;;
17345;SDS011;8790;53.590;10.002;2023-10-08T11:27:00;1.83;;;0.80;;
17345;SDS011;8790;53.590;10.002;2023-10-08T11:29:46;1.93;;;0.80;;
17345;SDS011;8790;53.590;10.002;2023-10-08T11:32:19;1.77;;;0.80;;
17345;SDS011;8790;53.590;10.002;2023-10-08T11:34:55;1.70;;;1.10;;
17345;SDS011;8790;53.590;10.002;2023-10-08T11:37:30;1.93;;;0.60;;
17345;SDS011;8790;53.590;10.002;2023-10-08T11:40:04;1.77;;;0.93;;
17345;SDS011;8790;53.590;10.002;2023-10-08T11:42:45;1.27;;;0.63;;
17345;SDS011;8790;53.590;10.002;2023-10-08T11:45:21;1.50;;;1.00;;
17345;SDS011;8790;53.590;10.002;2023-10-08T11:47:58;1.47;;;0.80;;
17345;SDS011;8790;53.590;10.002;2023-10-08T11:50:33;2.80;;;0.80;;
17345;SDS011;8790;53.590;10.002;2023-10-08T11:53:05;1.83;;;0.77;;
17345;SDS011;8790;53.590;10.002;2023-10-08T11:55:36;2.23;;;1.30;;
17345;SDS011;8790;53.590;10.002;2023-10-08T11:58:09;3.20;;;1.20;;
17345;SDS011;8790;53.590;10.002;2023-10-08T12:00:47;1.20;;;0.87;;
17345;SDS011;8790;53.590;10.002;2023-10-08T12:03:23;1.97;;;0.83;;
17345;SDS011;8790;53.590;10.002;2023-10-08T12:05:56;2.10;;;0.87;;
17345;SDS011;8790;53.590;10.002;2023-10-08T12:08:29;1.47;;;0.87;;
17345;SDS011;8790;53.590;10.002;2023-10-08T12:11:01;1.63;;;0.73;;
17345;SDS011;8790;53.590;10.002;2023-10-08T12:13:32;1.90;;;0.70;;
17345;SDS011;8790;53.590;10.002;2023-10-08T12:16:03;1.47;;;0.80;;
17345;SDS011;8790;53.590;10.002;2023-10-08T12:18:39;1.50;;;0.90;;
17345;SDS011;8790;53.590;10.002;2023-10-08T12:21:10;2.10;;;0.80;;
17345;SDS011;8790;53.590;10.002;2023-10-08T12:23:45;1.87;;;0.80;;
17345;SDS011;8790;53.590;10.002;2023-10-08T12:26:18;3.10;;;0.77;;
17345;SDS011;8790;53.590;10.002;2023-10-08T12:28:49;2.03;;;0.80;;
17345;SDS011;8790;53.590;10.002;2023-10-08T12:31:23;1.40;;;0.90;;
17345;SDS011;8790;53.590;10.002;2023-10-08T12:33:56;1.67;;;0.70;;
17345;SDS011;8790;53.590;10.002;2023-10-08T12:36:30;1.20;;;0.93;;
17345;SDS011;8790;53.590;10.002;2023-10-08T12:39:03;3.83;;;1.00;;
17345;SDS011;8790;53.590;10.002;2023-10-08T12:41:40;2.13;;;0.80;;
17345;SDS011;8790;53.590;10.002;2023-10-08T12:44:13;3.13;;;1.03;;
17345;SDS011;8790;53.590;10.002;2023-10-08T12:46:45;2.23;;;0.83;;
17345;SDS011;8790;53.590;10.002;2023-10-08T12:49:20;2.17;;;1.00;;
17345;SDS011;8790;53.590;10.002;2023-10-08T12:51:52;1.47;;;0.83;;
17345;SDS011;8790;53.590;10.002;2023-10-08T12:54:23;1.70;;;0.80;;
17345;SDS011;8790;53.590;10.002;2023-10-08T12:56:59;1.40;;;0.80;;
17345;SDS011;8790;53.590;10.002;2023-10-08T12:59:30;1.67;;;0.90;;
17345;SDS011;8790;53.590;10.002;2023-10-08T13:02:02;1.53;;;0.87;;
17345;SDS011;8790;53.590;10.002;2023-10-08T13:04:39;1.80;;;0.80;;
17345;SDS011;8790;53.590;10.002;2023-10-08T13:07:11;0.60;;;0.50;;
17345;SDS011;8790;53.590;10.002;2023-10-08T13:09:44;1.30;;;0.90;;
17345;SDS011;8790;53.590;10.002;2023-10-08T13:12:15;1.30;;;0.83;;
17345;SDS011;8790;53.590;10.002;2023-10-08T13:14:47;2.00;;;0.90;;
17345;SDS011;8790;53.590;10.002;2023-10-08T13:17:18;0.87;;;0.80;;
17345;SDS011;8790;53.590;10.002;2023-10-08T13:19:51;1.77;;;0.80;;
17345;SDS011;8790;53.590;10.002;2023-10-08T13:22:22;1.77;;;0.80;;
17345;SDS011;8790;53.590;10.002;2023-10-08T13:24:55;2.93;;;0.93;;
17345;SDS011;8790;53.590;10.002;2023-10-08T13:27:26;1.90;;;0.97;;
17345;SDS011;8790;53.590;10.002;2023-10-08T13:29:58;1.07;;;0.70;;
17345;SDS011;8790;53.590;10.002;2023-10-08T13:32:34;1.37;;;0.77;;
17345;SDS011;8790;53.590;10.002;2023-10-08T13:35:08;2.43;;;1.00;;
17345;SDS011;8790;53.590;10.002;2023-10-08T13:37:41;1.83;;;0.80;;
17345;SDS011;8790;53.590;10.002;2023-10-08T13:40:12;1.17;;;0.80;;
17345;SDS011;8790;53.590;10.002;2023-10-08T13:42:45;2.63;;;1.50;;
17345;SDS011;8790;53.590;10.002;2023-10-08T13:45:18;1.63;;;1.00;;
17345;SDS011;8790;53.590;10.002;2023-10-08T13:47:56;2.60;;;0.80;;
17345;SDS011;8790;53.590;10.002;2023-10-08T13:50:31;2.40;;;1.00;;
17345;SDS011;8790;53.590;10.002;2023-10-08T13:53:02;1.40;;;0.80;;
17345;SDS011;8790;53.590;10.002;2023-10-08T13:55:34;1.87;;;0.83;;
17345;SDS011;8790;53.590;10.002;2023-10-08T13:58:05;2.70;;;1.00;;
17345;SDS011;8790;53.590;10.002;2023-10-08T14:00:38;1.50;;;0.80;;
17345;SDS011;8790;53.590;10.002;2023-10-08T14:03:09;2.77;;;1.10;;
17345;SDS011;8790;53.590;10.002;2023-10-08T14:05:45;2.13;;;1.03;;
17345;SDS011;8790;53.590;10.002;2023-10-08T14:08:20;2.87;;;0.93;;
17345;SDS011;8790;53.590;10.002;2023-10-08T14:10:52;3.03;;;0.80;;
17345;SDS011;8790;53.590;10.002;2023-10-08T14:13:26;2.30;;;0.90;;
17345;SDS011;8790;53.590;10.002;2023-10-08T14:15:59;1.97;;;1.20;;
17345;SDS011;8790;53.590;10.002;2023-10-08T14:18:35;1.30;;;0.73;;
17345;SDS011;8790;53.590;10.002;2023-10-08T14:21:12;6.03;;;1.10;;
17345;SDS011;8790;53.590;10.002;2023-10-08T14:23:43;1.43;;;0.90;;
17345;SDS011;8790;53.590;10.002;2023-10-08T14:26:15;3.03;;;1.00;;
17345;SDS011;8790;53.590;10.002;2023-10-08T14:28:46;1.83;;;0.97;;
17345;SDS011;8790;53.590;10.002;2023-10-08T14:31:23;1.60;;;1.10;;
17345;SDS011;8790;53.590;10.002;2023-10-08T14:33:56;2.00;;;0.83;;
17345;SDS011;8790;53.590;10.002;2023-10-08T14:36:36;2.67;;;1.23;;
17345;SDS011;8790;53.590;10.002;2023-10-08T14:39:26;1.73;;;1.00;;
17345;SDS011;8790;53.590;10.002;2023-10-08T14:42:15;1.87;;;1.03;;
17345;SDS011;8790;53.590;10.002;2023-10-08T14:45:04;2.10;;;1.20;;
17345;SDS011;8790;53.590;10.002;2023-10-08T14:47:41;3.20;;;1.10;;
17345;SDS011;8790;53.590;10.002;2023-10-08T14:50:12;1.63;;;1.03;;
17345;SDS011;8790;53.590;10.002;2023-10-08T14:52:48;2.57;;;0.93;;
17345;SDS011;8790;53.590;10.002;2023-10-08T14:55:20;1.20;;;1.10;;
17345;SDS011;8790;53.590;10.002;2023-10-08T14:57:53;1.10;;;0.80;;
17345;SDS011;8790;53.590;10.002;2023-10-08T15:00:25;2.00;;;1.00;;
17345;SDS011;8790;53.590;10.002;2023-10-08T15:02:56;2.40;;;1.10;;
17345;SDS011;8790;53.590;10.002;2023-10-08T15:05:30;2.53;;;1.43;;
17345;SDS011;8790;53.590;10.002;2023-10-08T15:08:03;2.90;;;1.40;;
17345;SDS011;8790;53.590;10.002;2023-10-08T15:10:39;1.30;;;1.07;;
17345;SDS011;8790;53.590;10.002;2023-10-08T15:13:11;2.97;;;1.07;;
17345;SDS011;8790;53.590;10.002;2023-10-08T15:15:42;1.80;;;1.10;;
17345;SDS011;8790;53.590;10.002;2023-10-08T15:18:14;4.10;;;1.53;;
17345;SDS011;8790;53.590;10.002;2023-10-08T15:20:47;2.03;;;1.30;;
17345;SDS011;8790;53.590;10.002;2023-10-08T15:23:20;2.47;;;1.33;;
17345;SDS011;8790;53.590;10.002;2023-10-08T15:25:55;2.07;;;1.33;;
17345;SDS011;8790;53.590;10.002;2023-10-08T15:28:27;2.90;;;1.27;;
17345;SDS011;8790;53.590;10.002;2023-10-08T15:30:59;3.97;;;1.90;;
17345;SDS011;8790;53.590;10.002;2023-10-08T15:33:30;3.53;;;1.43;;
17345;SDS011;8790;53.590;10.002;2023-10-08T15:36:02;2.97;;;1.43;;